sensor_id;sensor_type;location;lat;lon;timestamp;P1;durP1;ratioP1;P2;durP2;ratioP2
65581;SDS011;52231;40.090;18.348;2024-02-04T00:00:13;99.15;;;54.05;;
65581;SDS011;52231;40.090;18.348;2024-02-04T00:05:10;97.68;;;52.22;;
65581;SDS011;52231;40.090;18.348;2024-02-04T00:07:38;96.18;;;53.53;;
65581;SDS011;52231;40.090;18.348;2024-02-04T00:10:06;100.68;;;54.28;;
65581;SDS011;52231;40.090;18.348;2024-02-04T00:12:35;117.55;;;60.45;;
65581;SDS011;52231;40.090;18.348;2024-02-04T00:15:03;102.03;;;59.28;;
65581;SDS011;52231;40.090;18.348;2024-02-04T00:17:32;94.00;;;53.20;;
65581;SDS011;52231;40.090;18.348;2024-02-04T00:20:02;93.85;;;52.63;;
65581;SDS011;52231;40.090;18.348;2024-02-04T00:22:35;95.88;;;53.67;;
65581;SDS011;52231;40.090;18.348;2024-02-04T00:25:03;99.03;;;54.33;;
65581;SDS011;52231;40.090;18.348;2024-02-04T00:27:32;93.30;;;53.45;;
65581;SDS011;52231;40.090;18.348;2024-02-04T00:30:04;88.63;;;48.38;;
65581;SDS011;52231;40.090;18.348;2024-02-04T00:32:33;85.07;;;49.33;;
65581;SDS011;52231;40.090;18.348;2024-02-04T00:35:01;90.55;;;50.33;;
65581;SDS011;52231;40.090;18.348;2024-02-04T00:37:31;86.53;;;48.45;;
65581;SDS011;52231;40.090;18.348;2024-02-04T00:39:59;86.75;;;50.03;;
65581;SDS011;52231;40.090;18.348;2024-02-04T00:42:27;90.80;;;49.80;;
65581;SDS011;52231;40.090;18.348;2024-02-04T00:44:55;82.82;;;48.83;;
65581;SDS011;52231;40.090;18.348;2024-02-04T00:47:23;79.88;;;47.88;;
65581;SDS011;52231;40.090;18.348;2024-02-04T00:49:53;77.82;;;45.90;;
65581;SDS011;52231;40.090;18.348;2024-02-04T00:52:21;82.78;;;47.67;;
65581;SDS011;52231;40.090;18.348;2024-02-04T00:54:49;79.90;;;46.40;;
65581;SDS011;52231;40.090;18.348;2024-02-04T00:57:17;80.18;;;46.17;;
65581;SDS011;52231;40.090;18.348;2024-02-04T00:59:46;87.57;;;49.20;;
65581;SDS011;52231;40.090;18.348;2024-02-04T01:02:14;85.15;;;47.47;;
65581;SDS011;52231;40.090;18.348;2024-02-04T01:04:43;85.95;;;48.83;;
65581;SDS011;52231;40.090;18.348;2024-02-04T01:07:11;84.53;;;47.35;;
65581;SDS011;52231;40.090;18.348;2024-02-04T01:09:39;91.50;;;49.35;;
65581;SDS011;52231;40.090;18.348;2024-02-04T01:12:07;86.75;;;47.45;;
65581;SDS011;52231;40.090;18.348;2024-02-04T01:14:36;89.85;;;47.55;;
65581;SDS011;52231;40.090;18.348;2024-02-04T01:17:05;84.65;;;47.47;;
65581;SDS011;52231;40.090;18.348;2024-02-04T01:19:33;87.28;;;47.03;;
65581;SDS011;52231;40.090;18.348;2024-02-04T01:22:01;89.15;;;48.97;;
65581;SDS011;52231;40.090;18.348;2024-02-04T01:24:29;84.22;;;47.10;;
65581;SDS011;52231;40.090;18.348;2024-02-04T01:26:58;86.07;;;46.97;;
65581;SDS011;52231;40.090;18.348;2024-02-04T01:29:28;93.38;;;46.80;;
65581;SDS011;52231;40.090;18.348;2024-02-04T01:31:58;82.40;;;47.13;;
65581;SDS011;52231;40.090;18.348;2024-02-04T01:34:26;85.28;;;47.40;;
65581;SDS011;52231;40.090;18.348;2024-02-04T01:36:55;84.72;;;45.92;;
65581;SDS011;52231;40.090;18.348;2024-02-04T01:39:23;87.22;;;47.88;;
65581;SDS011;52231;40.090;18.348;2024-02-04T01:41:52;87.25;;;47.05;;
65581;SDS011;52231;40.090;18.348;2024-02-04T01:44:20;83.32;;;46.28;;
65581;SDS011;52231;40.090;18.348;2024-02-04T01:46:49;81.45;;;46.28;;
65581;SDS011;52231;40.090;18.348;2024-02-04T01:49:17;82.28;;;46.75;;
65581;SDS011;52231;40.090;18.348;2024-02-04T01:51:46;83.68;;;47.00;;
65581;SDS011;52231;40.090;18.348;2024-02-04T01:54:14;83.82;;;47.00;;
65581;SDS011;52231;40.090;18.348;2024-02-04T01:56:45;83.70;;;47.85;;
65581;SDS011;52231;40.090;18.348;2024-02-04T01:59:33;81.70;;;46.78;;
65581;SDS011;52231;40.090;18.348;2024-02-04T02:02:01;85.32;;;48.22;;
65581;SDS011;52231;40.090;18.348;2024-02-04T02:04:34;83.65;;;46.92;;
65581;SDS011;52231;40.090;18.348;2024-02-04T02:07:02;92.93;;;49.42;;
65581;SDS011;52231;40.090;18.348;2024-02-04T02:09:31;108.80;;;49.00;;
65581;SDS011;52231;40.090;18.348;2024-02-04T02:12:05;133.02;;;50.95;;
65581;SDS011;52231;40.090;18.348;2024-02-04T02:14:44;114.80;;;50.92;;
65581;SDS011;52231;40.090;18.348;2024-02-04T02:17:18;118.45;;;50.47;;
65581;SDS011;52231;40.090;18.348;2024-02-04T02:19:57;117.72;;;50.67;;
65581;SDS011;52231;40.090;18.348;2024-02-04T02:22:43;118.78;;;49.90;;
65581;SDS011;52231;40.090;18.348;2024-02-04T02:25:16;105.90;;;49.97;;
65581;SDS011;52231;40.090;18.348;2024-02-04T02:27:47;97.18;;;50.00;;
65581;SDS011;52231;40.090;18.348;2024-02-04T02:30:19;96.88;;;48.28;;
65581;SDS011;52231;40.090;18.348;2024-02-04T02:32:48;90.75;;;46.35;;
65581;SDS011;52231;40.090;18.348;2024-02-04T02:37:46;89.22;;;45.17;;
65581;SDS011;52231;40.090;18.348;2024-02-04T02:40:38;88.13;;;44.60;;
65581;SDS011;52231;40.090;18.348;2024-02-04T02:43:15;93.22;;;46.67;;
65581;SDS011;52231;40.090;18.348;2024-02-04T02:45:44;86.50;;;46.28;;
65581;SDS011;52231;40.090;18.348;2024-02-04T02:48:13;94.80;;;46.15;;
65581;SDS011;52231;40.090;18.348;2024-02-04T02:50:41;82.72;;;45.00;;
65581;SDS011;52231;40.090;18.348;2024-02-04T02:53:10;82.57;;;44.67;;
65581;SDS011;52231;40.090;18.348;2024-02-04T02:55:39;79.28;;;43.17;;
65581;SDS011;52231;40.090;18.348;2024-02-04T02:58:08;80.63;;;42.47;;
65581;SDS011;52231;40.090;18.348;2024-02-04T03:00:36;80.20;;;42.83;;
65581;SDS011;52231;40.090;18.348;2024-02-04T03:03:05;80.45;;;42.78;;
65581;SDS011;52231;40.090;18.348;2024-02-04T03:05:36;80.95;;;43.00;;
65581;SDS011;52231;40.090;18.348;2024-02-04T03:08:05;85.47;;;43.35;;
65581;SDS011;52231;40.090;18.348;2024-02-04T03:10:33;81.03;;;43.25;;
65581;SDS011;52231;40.090;18.348;2024-02-04T03:13:01;84.97;;;45.63;;
65581;SDS011;52231;40.090;18.348;2024-02-04T03:15:30;83.22;;;43.72;;
65581;SDS011;52231;40.090;18.348;2024-02-04T03:17:58;87.38;;;46.42;;
65581;SDS011;52231;40.090;18.348;2024-02-04T03:20:26;85.53;;;43.95;;
65581;SDS011;52231;40.090;18.348;2024-02-04T03:22:55;87.82;;;45.25;;
65581;SDS011;52231;40.090;18.348;2024-02-04T03:25:23;87.15;;;45.03;;
65581;SDS011;52231;40.090;18.348;2024-02-04T03:27:54;88.32;;;45.05;;
65581;SDS011;52231;40.090;18.348;2024-02-04T03:30:22;87.57;;;45.03;;
65581;SDS011;52231;40.090;18.348;2024-02-04T03:32:51;85.93;;;45.78;;
65581;SDS011;52231;40.090;18.348;2024-02-04T03:35:19;89.00;;;44.10;;
65581;SDS011;52231;40.090;18.348;2024-02-04T03:37:47;85.32;;;43.13;;
65581;SDS011;52231;40.090;18.348;2024-02-04T03:40:15;89.00;;;44.78;;
65581;SDS011;52231;40.090;18.348;2024-02-04T03:42:45;88.00;;;45.90;;
65581;SDS011;52231;40.090;18.348;2024-02-04T03:45:13;92.80;;;46.17;;
65581;SDS011;52231;40.090;18.348;2024-02-04T03:47:41;92.88;;;46.30;;
65581;SDS011;52231;40.090;18.348;2024-02-04T03:50:11;93.72;;;46.00;;
65581;SDS011;52231;40.090;18.348;2024-02-04T03:52:39;93.10;;;46.03;;
65581;SDS011;52231;40.090;18.348;2024-02-04T03:55:08;89.38;;;43.47;;
65581;SDS011;52231;40.090;18.348;2024-02-04T03:57:36;103.22;;;44.00;;
65581;SDS011;52231;40.090;18.348;2024-02-04T04:00:04;97.57;;;43.83;;
65581;SDS011;52231;40.090;18.348;2024-02-04T04:02:37;104.10;;;43.05;;
65581;SDS011;52231;40.090;18.348;2024-02-04T04:05:05;85.80;;;42.45;;
65581;SDS011;52231;40.090;18.348;2024-02-04T04:07:40;83.25;;;42.72;;
65581;SDS011;52231;40.090;18.348;2024-02-04T04:10:17;90.80;;;44.15;;
65581;SDS011;52231;40.090;18.348;2024-02-04T04:12:49;85.68;;;42.42;;
65581;SDS011;52231;40.090;18.348;2024-02-04T04:15:17;84.78;;;41.00;;
65581;SDS011;52231;40.090;18.348;2024-02-04T04:17:45;79.70;;;42.92;;
65581;SDS011;52231;40.090;18.348;2024-02-04T04:20:13;86.75;;;43.95;;
65581;SDS011;52231;40.090;18.348;2024-02-04T04:22:41;82.85;;;42.75;;
65581;SDS011;52231;40.090;18.348;2024-02-04T04:25:09;90.18;;;46.13;;
65581;SDS011;52231;40.090;18.348;2024-02-04T04:27:37;93.47;;;43.67;;
65581;SDS011;52231;40.090;18.348;2024-02-04T04:34:50;90.68;;;43.38;;
65581;SDS011;52231;40.090;18.348;2024-02-04T04:37:19;91.95;;;44.17;;
65581;SDS011;52231;40.090;18.348;2024-02-04T04:39:47;88.30;;;43.65;;
65581;SDS011;52231;40.090;18.348;2024-02-04T04:42:15;83.97;;;43.45;;
65581;SDS011;52231;40.090;18.348;2024-02-04T04:44:43;89.43;;;44.60;;
65581;SDS011;52231;40.090;18.348;2024-02-04T04:47:12;85.40;;;43.28;;
65581;SDS011;52231;40.090;18.348;2024-02-04T04:58:15;80.35;;;38.65;;
65581;SDS011;52231;40.090;18.348;2024-02-04T05:04:03;74.53;;;37.95;;
65581;SDS011;52231;40.090;18.348;2024-02-04T05:17:24;73.47;;;36.47;;
65581;SDS011;52231;40.090;18.348;2024-02-04T05:19:52;76.72;;;38.15;;
65581;SDS011;52231;40.090;18.348;2024-02-04T05:22:20;80.18;;;39.65;;
65581;SDS011;52231;40.090;18.348;2024-02-04T05:24:48;76.88;;;39.80;;
65581;SDS011;52231;40.090;18.348;2024-02-04T05:30:35;77.60;;;38.25;;
65581;SDS011;52231;40.090;18.348;2024-02-04T05:43:32;78.35;;;37.80;;
65581;SDS011;52231;40.090;18.348;2024-02-04T05:46:00;79.45;;;39.05;;
65581;SDS011;52231;40.090;18.348;2024-02-04T06:03:36;80.90;;;37.22;;
65581;SDS011;52231;40.090;18.348;2024-02-04T06:06:04;76.47;;;36.75;;
65581;SDS011;52231;40.090;18.348;2024-02-04T06:08:32;77.38;;;36.35;;
65581;SDS011;52231;40.090;18.348;2024-02-04T06:11:00;75.30;;;38.10;;
65581;SDS011;52231;40.090;18.348;2024-02-04T06:13:52;73.13;;;36.25;;
65581;SDS011;52231;40.090;18.348;2024-02-04T06:16:48;73.15;;;35.70;;
65581;SDS011;52231;40.090;18.348;2024-02-04T06:19:20;75.95;;;37.20;;
65581;SDS011;52231;40.090;18.348;2024-02-04T06:21:48;74.05;;;37.35;;
65581;SDS011;52231;40.090;18.348;2024-02-04T06:24:16;67.80;;;33.75;;
65581;SDS011;52231;40.090;18.348;2024-02-04T06:26:47;63.53;;;32.13;;
65581;SDS011;52231;40.090;18.348;2024-02-04T06:32:54;65.82;;;33.28;;
65581;SDS011;52231;40.090;18.348;2024-02-04T06:35:24;62.90;;;33.45;;
65581;SDS011;52231;40.090;18.348;2024-02-04T06:37:54;69.35;;;33.50;;
65581;SDS011;52231;40.090;18.348;2024-02-04T06:42:13;53.13;;;29.42;;
65581;SDS011;52231;40.090;18.348;2024-02-04T06:44:43;52.97;;;28.10;;
65581;SDS011;52231;40.090;18.348;2024-02-04T06:47:12;56.97;;;29.73;;
65581;SDS011;52231;40.090;18.348;2024-02-04T06:49:44;55.88;;;28.75;;
65581;SDS011;52231;40.090;18.348;2024-02-04T06:52:13;52.97;;;28.05;;
65581;SDS011;52231;40.090;18.348;2024-02-04T06:54:47;51.33;;;27.42;;
65581;SDS011;52231;40.090;18.348;2024-02-04T07:01:00;51.60;;;27.02;;
65581;SDS011;52231;40.090;18.348;2024-02-04T07:03:28;48.25;;;26.48;;
65581;SDS011;52231;40.090;18.348;2024-02-04T07:05:59;48.55;;;26.45;;
65581;SDS011;52231;40.090;18.348;2024-02-04T07:08:28;53.85;;;29.58;;
65581;SDS011;52231;40.090;18.348;2024-02-04T07:10:56;66.30;;;36.65;;
65581;SDS011;52231;40.090;18.348;2024-02-04T07:13:26;66.28;;;35.25;;
65581;SDS011;52231;40.090;18.348;2024-02-04T07:15:54;64.25;;;35.15;;
65581;SDS011;52231;40.090;18.348;2024-02-04T07:18:22;59.60;;;34.60;;
65581;SDS011;52231;40.090;18.348;2024-02-04T07:27:10;60.65;;;33.22;;
65581;SDS011;52231;40.090;18.348;2024-02-04T07:29:39;65.13;;;36.00;;
65581;SDS011;52231;40.090;18.348;2024-02-04T07:32:09;54.55;;;32.63;;
65581;SDS011;52231;40.090;18.348;2024-02-04T07:34:38;47.30;;;29.65;;
65581;SDS011;52231;40.090;18.348;2024-02-04T07:37:08;47.65;;;28.42;;
65581;SDS011;52231;40.090;18.348;2024-02-04T07:39:36;41.42;;;25.33;;
65581;SDS011;52231;40.090;18.348;2024-02-04T07:42:07;43.72;;;26.65;;
65581;SDS011;52231;40.090;18.348;2024-02-04T07:44:36;46.92;;;27.90;;
65581;SDS011;52231;40.090;18.348;2024-02-04T07:47:04;57.42;;;32.92;;
65581;SDS011;52231;40.090;18.348;2024-02-04T07:49:38;50.50;;;30.90;;
65581;SDS011;52231;40.090;18.348;2024-02-04T07:52:06;54.25;;;32.83;;
65581;SDS011;52231;40.090;18.348;2024-02-04T07:54:35;50.20;;;30.45;;
65581;SDS011;52231;40.090;18.348;2024-02-04T07:57:03;48.00;;;28.70;;
65581;SDS011;52231;40.090;18.348;2024-02-04T07:59:31;41.17;;;26.40;;
65581;SDS011;52231;40.090;18.348;2024-02-04T08:01:59;46.88;;;28.05;;
65581;SDS011;52231;40.090;18.348;2024-02-04T08:04:28;44.53;;;28.08;;
65581;SDS011;52231;40.090;18.348;2024-02-04T08:07:22;47.55;;;28.48;;
65581;SDS011;52231;40.090;18.348;2024-02-04T08:09:50;41.58;;;26.90;;
65581;SDS011;52231;40.090;18.348;2024-02-04T08:12:19;50.05;;;31.88;;
65581;SDS011;52231;40.090;18.348;2024-02-04T08:14:47;48.70;;;29.83;;
65581;SDS011;52231;40.090;18.348;2024-02-04T08:17:16;53.53;;;33.75;;
65581;SDS011;52231;40.090;18.348;2024-02-04T08:19:44;63.70;;;36.35;;
65581;SDS011;52231;40.090;18.348;2024-02-04T08:22:12;62.47;;;35.95;;
65581;SDS011;52231;40.090;18.348;2024-02-04T08:24:40;62.38;;;34.97;;
65581;SDS011;52231;40.090;18.348;2024-02-04T08:27:08;57.63;;;35.03;;
65581;SDS011;52231;40.090;18.348;2024-02-04T08:29:36;49.55;;;29.40;;
65581;SDS011;52231;40.090;18.348;2024-02-04T08:32:05;57.70;;;34.10;;
65581;SDS011;52231;40.090;18.348;2024-02-04T08:37:01;47.97;;;30.05;;
65581;SDS011;52231;40.090;18.348;2024-02-04T08:39:30;43.22;;;26.20;;
65581;SDS011;52231;40.090;18.348;2024-02-04T08:42:18;40.20;;;26.17;;
65581;SDS011;52231;40.090;18.348;2024-02-04T08:44:47;42.90;;;26.33;;
65581;SDS011;52231;40.090;18.348;2024-02-04T08:47:19;39.70;;;26.23;;
65581;SDS011;52231;40.090;18.348;2024-02-04T08:49:47;39.17;;;24.00;;
65581;SDS011;52231;40.090;18.348;2024-02-04T08:52:15;39.20;;;26.45;;
65581;SDS011;52231;40.090;18.348;2024-02-04T08:54:44;31.67;;;19.70;;
65581;SDS011;52231;40.090;18.348;2024-02-04T08:57:12;29.27;;;18.42;;
65581;SDS011;52231;40.090;18.348;2024-02-04T08:59:40;29.27;;;19.42;;
65581;SDS011;52231;40.090;18.348;2024-02-04T09:02:08;28.92;;;16.63;;
65581;SDS011;52231;40.090;18.348;2024-02-04T09:04:37;28.63;;;17.33;;
65581;SDS011;52231;40.090;18.348;2024-02-04T09:07:08;25.15;;;17.52;;
65581;SDS011;52231;40.090;18.348;2024-02-04T09:09:36;27.02;;;17.63;;
65581;SDS011;52231;40.090;18.348;2024-02-04T09:12:04;88.47;;;44.25;;
65581;SDS011;52231;40.090;18.348;2024-02-04T09:14:33;52.40;;;30.63;;
65581;SDS011;52231;40.090;18.348;2024-02-04T09:17:04;39.20;;;24.52;;
65581;SDS011;52231;40.090;18.348;2024-02-04T09:19:34;32.67;;;21.50;;
65581;SDS011;52231;40.090;18.348;2024-02-04T09:22:04;33.47;;;21.55;;
65581;SDS011;52231;40.090;18.348;2024-02-04T09:25:04;29.50;;;20.13;;
65581;SDS011;52231;40.090;18.348;2024-02-04T09:27:33;27.88;;;19.50;;
65581;SDS011;52231;40.090;18.348;2024-02-04T09:32:30;22.52;;;12.07;;
65581;SDS011;52231;40.090;18.348;2024-02-04T09:34:58;16.90;;;9.10;;
65581;SDS011;52231;40.090;18.348;2024-02-04T09:37:35;17.50;;;9.00;;
65581;SDS011;52231;40.090;18.348;2024-02-04T09:40:04;20.67;;;10.07;;
65581;SDS011;52231;40.090;18.348;2024-02-04T09:42:32;17.85;;;9.80;;
65581;SDS011;52231;40.090;18.348;2024-02-04T09:45:00;21.90;;;11.82;;
65581;SDS011;52231;40.090;18.348;2024-02-04T09:47:29;22.27;;;12.88;;
65581;SDS011;52231;40.090;18.348;2024-02-04T09:49:59;26.33;;;14.20;;
65581;SDS011;52231;40.090;18.348;2024-02-04T09:52:30;72.78;;;45.40;;
65581;SDS011;52231;40.090;18.348;2024-02-04T09:55:01;41.70;;;28.73;;
65581;SDS011;52231;40.090;18.348;2024-02-04T09:57:34;29.25;;;20.00;;
65581;SDS011;52231;40.090;18.348;2024-02-04T10:00:02;20.50;;;12.57;;
65581;SDS011;52231;40.090;18.348;2024-02-04T10:02:56;21.40;;;11.90;;
65581;SDS011;52231;40.090;18.348;2024-02-04T10:05:25;131.52;;;67.40;;
65581;SDS011;52231;40.090;18.348;2024-02-04T10:07:53;21.65;;;11.40;;
65581;SDS011;52231;40.090;18.348;2024-02-04T10:10:21;23.90;;;12.45;;
65581;SDS011;52231;40.090;18.348;2024-02-04T10:15:18;15.20;;;7.43;;
65581;SDS011;52231;40.090;18.348;2024-02-04T10:17:46;29.80;;;14.30;;
65581;SDS011;52231;40.090;18.348;2024-02-04T10:20:14;36.13;;;18.23;;
65581;SDS011;52231;40.090;18.348;2024-02-04T10:22:43;25.33;;;12.82;;
65581;SDS011;52231;40.090;18.348;2024-02-04T10:25:11;27.50;;;12.70;;
65581;SDS011;52231;40.090;18.348;2024-02-04T10:30:08;19.05;;;8.70;;
65581;SDS011;52231;40.090;18.348;2024-02-04T10:32:37;17.55;;;9.93;;
65581;SDS011;52231;40.090;18.348;2024-02-04T10:35:05;14.50;;;8.27;;
65581;SDS011;52231;40.090;18.348;2024-02-04T10:37:34;15.50;;;8.13;;
65581;SDS011;52231;40.090;18.348;2024-02-04T10:40:03;17.42;;;8.40;;
65581;SDS011;52231;40.090;18.348;2024-02-04T10:44:59;14.70;;;7.93;;
65581;SDS011;52231;40.090;18.348;2024-02-04T10:47:32;16.65;;;9.75;;
65581;SDS011;52231;40.090;18.348;2024-02-04T10:50:04;16.95;;;8.40;;
65581;SDS011;52231;40.090;18.348;2024-02-04T10:52:37;17.88;;;10.00;;
65581;SDS011;52231;40.090;18.348;2024-02-04T10:55:07;17.42;;;9.15;;
65581;SDS011;52231;40.090;18.348;2024-02-04T10:57:39;16.05;;;8.27;;
65581;SDS011;52231;40.090;18.348;2024-02-04T11:00:08;32.08;;;21.08;;
65581;SDS011;52231;40.090;18.348;2024-02-04T11:02:39;28.73;;;14.80;;
65581;SDS011;52231;40.090;18.348;2024-02-04T11:07:44;15.13;;;8.65;;
65581;SDS011;52231;40.090;18.348;2024-02-04T11:10:13;26.13;;;12.13;;
65581;SDS011;52231;40.090;18.348;2024-02-04T11:12:42;16.90;;;9.27;;
65581;SDS011;52231;40.090;18.348;2024-02-04T11:25:54;17.15;;;8.98;;
65581;SDS011;52231;40.090;18.348;2024-02-04T11:28:25;16.05;;;8.25;;
65581;SDS011;52231;40.090;18.348;2024-02-04T11:30:54;13.35;;;7.00;;
65581;SDS011;52231;40.090;18.348;2024-02-04T11:33:23;14.73;;;7.63;;
65581;SDS011;52231;40.090;18.348;2024-02-04T11:38:47;12.88;;;7.47;;
65581;SDS011;52231;40.090;18.348;2024-02-04T11:41:22;14.68;;;8.50;;
65581;SDS011;52231;40.090;18.348;2024-02-04T11:43:52;14.95;;;6.90;;
65581;SDS011;52231;40.090;18.348;2024-02-04T11:46:23;12.70;;;6.38;;
65581;SDS011;52231;40.090;18.348;2024-02-04T11:49:01;11.98;;;6.13;;
65581;SDS011;52231;40.090;18.348;2024-02-04T11:51:32;15.98;;;6.40;;
65581;SDS011;52231;40.090;18.348;2024-02-04T11:54:04;12.98;;;5.28;;
65581;SDS011;52231;40.090;18.348;2024-02-04T11:56:34;15.13;;;8.23;;
65581;SDS011;52231;40.090;18.348;2024-02-04T11:59:03;14.93;;;6.25;;
65581;SDS011;52231;40.090;18.348;2024-02-04T12:01:35;12.98;;;6.60;;
65581;SDS011;52231;40.090;18.348;2024-02-04T12:04:13;11.80;;;6.10;;
65581;SDS011;52231;40.090;18.348;2024-02-04T12:06:43;12.88;;;5.80;;
65581;SDS011;52231;40.090;18.348;2024-02-04T12:09:12;14.35;;;7.25;;
65581;SDS011;52231;40.090;18.348;2024-02-04T12:11:41;13.95;;;6.10;;
65581;SDS011;52231;40.090;18.348;2024-02-04T12:14:10;26.05;;;17.15;;
65581;SDS011;52231;40.090;18.348;2024-02-04T12:16:37;13.60;;;6.70;;
65581;SDS011;52231;40.090;18.348;2024-02-04T12:19:06;14.25;;;7.72;;
65581;SDS011;52231;40.090;18.348;2024-02-04T12:21:34;14.02;;;7.70;;
65581;SDS011;52231;40.090;18.348;2024-02-04T12:24:52;14.98;;;7.10;;
65581;SDS011;52231;40.090;18.348;2024-02-04T12:27:21;15.90;;;8.50;;
65581;SDS011;52231;40.090;18.348;2024-02-04T12:29:52;16.60;;;9.85;;
65581;SDS011;52231;40.090;18.348;2024-02-04T12:32:20;22.48;;;13.23;;
65581;SDS011;52231;40.090;18.348;2024-02-04T12:34:48;15.80;;;7.65;;
65581;SDS011;52231;40.090;18.348;2024-02-04T12:37:21;14.25;;;7.25;;
65581;SDS011;52231;40.090;18.348;2024-02-04T12:39:49;17.85;;;8.90;;
65581;SDS011;52231;40.090;18.348;2024-02-04T12:42:17;14.10;;;8.23;;
65581;SDS011;52231;40.090;18.348;2024-02-04T12:44:47;19.90;;;10.27;;
65581;SDS011;52231;40.090;18.348;2024-02-04T12:49:48;21.50;;;10.77;;
65581;SDS011;52231;40.090;18.348;2024-02-04T12:52:19;19.25;;;10.80;;
65581;SDS011;52231;40.090;18.348;2024-02-04T12:54:51;16.27;;;8.02;;
65581;SDS011;52231;40.090;18.348;2024-02-04T12:57:23;15.63;;;8.27;;
65581;SDS011;52231;40.090;18.348;2024-02-04T12:59:52;22.77;;;11.65;;
65581;SDS011;52231;40.090;18.348;2024-02-04T13:02:30;24.55;;;14.80;;
65581;SDS011;52231;40.090;18.348;2024-02-04T13:05:23;14.65;;;7.38;;
65581;SDS011;52231;40.090;18.348;2024-02-04T13:07:58;14.93;;;8.45;;
65581;SDS011;52231;40.090;18.348;2024-02-04T13:10:30;18.42;;;9.20;;
65581;SDS011;52231;40.090;18.348;2024-02-04T13:13:07;16.67;;;10.07;;
65581;SDS011;52231;40.090;18.348;2024-02-04T13:15:39;15.65;;;7.53;;
65581;SDS011;52231;40.090;18.348;2024-02-04T13:18:08;15.75;;;6.65;;
65581;SDS011;52231;40.090;18.348;2024-02-04T13:20:43;15.95;;;8.18;;
65581;SDS011;52231;40.090;18.348;2024-02-04T13:23:12;13.85;;;6.70;;
65581;SDS011;52231;40.090;18.348;2024-02-04T13:25:41;24.23;;;13.32;;
65581;SDS011;52231;40.090;18.348;2024-02-04T13:28:09;32.47;;;15.82;;
65581;SDS011;52231;40.090;18.348;2024-02-04T13:30:37;35.28;;;18.50;;
65581;SDS011;52231;40.090;18.348;2024-02-04T13:33:05;50.97;;;29.13;;
65581;SDS011;52231;40.090;18.348;2024-02-04T13:38:01;12.57;;;6.47;;
65581;SDS011;52231;40.090;18.348;2024-02-04T13:40:30;13.73;;;7.22;;
65581;SDS011;52231;40.090;18.348;2024-02-04T13:42:59;20.65;;;11.02;;
65581;SDS011;52231;40.090;18.348;2024-02-04T13:45:29;27.25;;;16.88;;
65581;SDS011;52231;40.090;18.348;2024-02-04T13:47:58;22.73;;;11.80;;
65581;SDS011;52231;40.090;18.348;2024-02-04T13:50:26;19.33;;;11.25;;
65581;SDS011;52231;40.090;18.348;2024-02-04T13:52:54;19.70;;;12.32;;
65581;SDS011;52231;40.090;18.348;2024-02-04T13:55:25;14.93;;;8.45;;
65581;SDS011;52231;40.090;18.348;2024-02-04T13:57:53;11.38;;;5.65;;
65581;SDS011;52231;40.090;18.348;2024-02-04T14:00:40;13.93;;;7.03;;
65581;SDS011;52231;40.090;18.348;2024-02-04T14:03:09;15.13;;;6.60;;
65581;SDS011;52231;40.090;18.348;2024-02-04T14:05:40;21.98;;;12.15;;
65581;SDS011;52231;40.090;18.348;2024-02-04T14:08:29;14.23;;;6.68;;
65581;SDS011;52231;40.090;18.348;2024-02-04T14:13:26;15.85;;;6.72;;
65581;SDS011;52231;40.090;18.348;2024-02-04T14:15:54;15.05;;;7.32;;
65581;SDS011;52231;40.090;18.348;2024-02-04T14:20:50;17.65;;;10.23;;
65581;SDS011;52231;40.090;18.348;2024-02-04T14:23:18;17.52;;;9.18;;
65581;SDS011;52231;40.090;18.348;2024-02-04T14:25:46;17.67;;;9.27;;
65581;SDS011;52231;40.090;18.348;2024-02-04T14:28:15;17.73;;;9.93;;
65581;SDS011;52231;40.090;18.348;2024-02-04T14:30:43;18.25;;;10.20;;
65581;SDS011;52231;40.090;18.348;2024-02-04T14:33:12;19.10;;;10.15;;
65581;SDS011;52231;40.090;18.348;2024-02-04T14:35:40;18.00;;;9.80;;
65581;SDS011;52231;40.090;18.348;2024-02-04T14:38:08;13.57;;;8.20;;
65581;SDS011;52231;40.090;18.348;2024-02-04T14:40:38;14.32;;;8.07;;
65581;SDS011;52231;40.090;18.348;2024-02-04T14:43:29;14.85;;;6.57;;
65581;SDS011;52231;40.090;18.348;2024-02-04T14:45:58;13.32;;;7.88;;
65581;SDS011;52231;40.090;18.348;2024-02-04T14:48:30;12.90;;;7.38;;
65581;SDS011;52231;40.090;18.348;2024-02-04T14:50:59;17.10;;;7.80;;
65581;SDS011;52231;40.090;18.348;2024-02-04T14:53:27;13.48;;;7.95;;
65581;SDS011;52231;40.090;18.348;2024-02-04T14:55:56;15.55;;;7.88;;
65581;SDS011;52231;40.090;18.348;2024-02-04T14:58:24;15.00;;;8.20;;
65581;SDS011;52231;40.090;18.348;2024-02-04T15:03:47;16.02;;;7.80;;
65581;SDS011;52231;40.090;18.348;2024-02-04T15:06:17;13.80;;;7.95;;
65581;SDS011;52231;40.090;18.348;2024-02-04T15:08:47;12.80;;;7.30;;
65581;SDS011;52231;40.090;18.348;2024-02-04T15:13:45;15.48;;;7.03;;
65581;SDS011;52231;40.090;18.348;2024-02-04T15:16:15;11.77;;;6.40;;
65581;SDS011;52231;40.090;18.348;2024-02-04T15:18:43;14.85;;;7.25;;
65581;SDS011;52231;40.090;18.348;2024-02-04T15:21:12;12.00;;;6.82;;
65581;SDS011;52231;40.090;18.348;2024-02-04T15:23:42;16.02;;;7.75;;
65581;SDS011;52231;40.090;18.348;2024-02-04T15:26:30;16.23;;;8.25;;
65581;SDS011;52231;40.090;18.348;2024-02-04T15:31:33;15.80;;;9.23;;
65581;SDS011;52231;40.090;18.348;2024-02-04T15:34:03;15.60;;;8.48;;
65581;SDS011;52231;40.090;18.348;2024-02-04T15:37:02;15.85;;;9.75;;
65581;SDS011;52231;40.090;18.348;2024-02-04T15:39:52;17.48;;;10.38;;
65581;SDS011;52231;40.090;18.348;2024-02-04T15:42:22;18.73;;;11.05;;
65581;SDS011;52231;40.090;18.348;2024-02-04T15:44:50;18.00;;;11.05;;
65581;SDS011;52231;40.090;18.348;2024-02-04T15:47:19;17.10;;;8.98;;
65581;SDS011;52231;40.090;18.348;2024-02-04T15:50:16;17.05;;;9.63;;
65581;SDS011;52231;40.090;18.348;2024-02-04T15:53:04;18.95;;;10.98;;
65581;SDS011;52231;40.090;18.348;2024-02-04T15:55:33;21.98;;;11.38;;
65581;SDS011;52231;40.090;18.348;2024-02-04T16:00:33;50.65;;;29.70;;
65581;SDS011;52231;40.090;18.348;2024-02-04T16:03:01;25.10;;;14.98;;
65581;SDS011;52231;40.090;18.348;2024-02-04T16:05:30;27.88;;;19.15;;
65581;SDS011;52231;40.090;18.348;2024-02-04T16:08:01;32.25;;;24.08;;
65581;SDS011;52231;40.090;18.348;2024-02-04T16:10:30;29.98;;;21.83;;
65581;SDS011;52231;40.090;18.348;2024-02-04T16:12:58;22.50;;;13.95;;
65581;SDS011;52231;40.090;18.348;2024-02-04T16:15:29;28.75;;;18.00;;
65581;SDS011;52231;40.090;18.348;2024-02-04T16:17:58;32.22;;;19.00;;
65581;SDS011;52231;40.090;18.348;2024-02-04T16:20:27;31.98;;;21.00;;
65581;SDS011;52231;40.090;18.348;2024-02-04T16:22:56;36.78;;;21.45;;
65581;SDS011;52231;40.090;18.348;2024-02-04T16:27:57;31.27;;;16.23;;
65581;SDS011;52231;40.090;18.348;2024-02-04T16:30:25;29.08;;;17.23;;
65581;SDS011;52231;40.090;18.348;2024-02-04T16:33:06;29.55;;;17.85;;
65581;SDS011;52231;40.090;18.348;2024-02-04T16:35:34;38.47;;;24.85;;
65581;SDS011;52231;40.090;18.348;2024-02-04T16:38:04;34.55;;;21.23;;